createdAt,value
2018-06-21T00:00:22.699Z,984.79
2018-06-21T00:01:22.918Z,984.79
2018-06-21T00:02:23.072Z,984.80
2018-06-21T00:03:23.261Z,984.78
2018-06-21T00:04:23.445Z,984.79
2018-06-21T00:05:23.620Z,984.79
2018-06-21T00:06:23.814Z,984.77
2018-06-21T00:07:23.999Z,984.77
2018-06-21T00:08:24.189Z,984.75
2018-06-21T00:09:24.370Z,984.73
2018-06-21T00:10:24.569Z,984.72
2018-06-21T00:11:24.723Z,984.73
2018-06-21T00:12:24.921Z,984.68
2018-06-21T00:13:25.075Z,984.73
2018-06-21T00:14:25.274Z,984.70
2018-06-21T00:15:25.459Z,984.69
2018-06-21T00:16:25.650Z,984.67
2018-06-21T00:17:25.839Z,984.63
2018-06-21T00:18:26.051Z,984.68
2018-06-21T00:19:26.222Z,984.65
2018-06-21T00:20:26.387Z,984.63
2018-06-21T00:21:26.574Z,984.63
2018-06-21T00:22:26.759Z,984.65
2018-06-21T00:23:26.948Z,984.62
2018-06-21T00:24:27.141Z,984.61
2018-06-21T00:25:27.301Z,984.61
2018-06-21T00:26:27.479Z,984.61
2018-06-21T00:27:27.682Z,984.58
2018-06-21T00:28:27.866Z,984.58
2018-06-21T00:29:28.054Z,984.59
2018-06-21T00:30:28.228Z,984.59
2018-06-21T00:31:28.414Z,984.59
2018-06-21T00:32:28.622Z,984.57
2018-06-21T00:33:28.780Z,984.54
2018-06-21T00:34:28.977Z,984.56
2018-06-21T00:35:29.142Z,984.56
2018-06-21T00:36:29.327Z,984.52
2018-06-21T00:37:29.515Z,984.54
2018-06-21T00:38:29.705Z,984.53
2018-06-21T00:39:29.891Z,984.45
2018-06-21T00:40:30.078Z,984.44
2018-06-21T00:41:30.272Z,984.44
2018-06-21T00:42:30.458Z,984.42
2018-06-21T00:43:30.646Z,984.37
2018-06-21T00:44:30.840Z,984.38
2018-06-21T00:45:31.023Z,984.38
2018-06-21T00:46:31.209Z,984.33
2018-06-21T00:47:31.395Z,984.29
2018-06-21T00:48:31.580Z,984.33
2018-06-21T00:49:31.772Z,984.31
2018-06-21T00:50:31.950Z,984.31
2018-06-21T00:51:32.134Z,984.29
2018-06-21T00:52:32.309Z,984.32
2018-06-21T00:53:32.494Z,984.31
2018-06-21T00:54:32.677Z,984.33
2018-06-21T00:55:32.864Z,984.34
2018-06-21T00:56:33.053Z,984.33
2018-06-21T00:57:33.239Z,984.32
2018-06-21T00:58:33.443Z,984.27
2018-06-21T00:59:33.609Z,984.28
2018-06-21T01:00:33.797Z,984.26
2018-06-21T01:01:34.016Z,984.29
2018-06-21T01:02:34.177Z,984.30
2018-06-21T01:03:34.335Z,984.25
2018-06-21T01:04:34.523Z,984.23
2018-06-21T01:05:34.706Z,984.21
2018-06-21T01:06:34.888Z,984.20
2018-06-21T01:07:35.066Z,984.20
2018-06-21T01:08:35.249Z,984.22
2018-06-21T01:09:35.436Z,984.21
2018-06-21T01:10:35.624Z,984.22
2018-06-21T01:11:35.797Z,984.21
2018-06-21T01:12:35.985Z,984.24
2018-06-21T01:13:36.183Z,984.19
2018-06-21T01:14:36.352Z,984.20
2018-06-21T01:15:36.544Z,984.20
2018-06-21T01:16:36.723Z,984.16
2018-06-21T01:17:36.905Z,984.19
2018-06-21T01:18:37.086Z,984.17
2018-06-21T01:19:37.277Z,984.17
2018-06-21T01:20:37.465Z,984.20
2018-06-21T01:21:37.648Z,984.20
2018-06-21T01:22:37.828Z,984.19
2018-06-21T01:23:38.011Z,984.16
2018-06-21T01:24:38.203Z,984.16
2018-06-21T01:25:38.380Z,984.15
2018-06-21T01:26:38.570Z,984.11
2018-06-21T01:27:38.753Z,984.14
2018-06-21T01:28:38.943Z,984.15
2018-06-21T01:29:39.132Z,984.14
2018-06-21T01:30:39.307Z,984.18
2018-06-21T01:31:39.491Z,984.14
2018-06-21T01:32:39.663Z,984.16
2018-06-21T01:33:39.850Z,984.15
2018-06-21T01:34:40.033Z,984.15
2018-06-21T01:35:40.218Z,984.14
2018-06-21T01:36:40.403Z,984.11
2018-06-21T01:37:40.593Z,984.11
2018-06-21T01:38:40.788Z,984.16
2018-06-21T01:39:40.958Z,984.16
2018-06-21T01:40:41.151Z,984.11
2018-06-21T01:41:41.337Z,984.12
2018-06-21T01:42:41.526Z,984.10
2018-06-21T01:43:41.713Z,984.06
2018-06-21T01:44:41.897Z,984.04
2018-06-21T01:45:42.085Z,984.07
2018-06-21T01:46:42.265Z,984.11
2018-06-21T01:47:42.437Z,984.09
2018-06-21T01:48:42.622Z,984.06
2018-06-21T01:49:42.832Z,984.07
2018-06-21T01:50:42.993Z,984.04
2018-06-21T01:51:43.161Z,984.01
2018-06-21T01:52:43.355Z,984.02
2018-06-21T01:53:43.537Z,984.01
2018-06-21T01:54:43.696Z,983.98
2018-06-21T01:55:43.861Z,983.99
2018-06-21T01:56:44.045Z,984.02
2018-06-21T01:57:44.242Z,984.04
2018-06-21T01:58:44.426Z,984.06
2018-06-21T01:59:44.619Z,984.03
2018-06-21T02:00:44.807Z,984.00
2018-06-21T02:01:44.991Z,984.04
2018-06-21T02:02:45.178Z,983.98
2018-06-21T02:03:45.358Z,984.01
2018-06-21T02:04:45.542Z,984.03
2018-06-21T02:05:45.728Z,984.02
2018-06-21T02:06:45.921Z,983.98
2018-06-21T02:07:46.099Z,983.94
2018-06-21T02:08:46.294Z,983.96
2018-06-21T02:09:46.486Z,983.91
2018-06-21T02:10:46.689Z,983.89
2018-06-21T02:11:46.851Z,983.88
2018-06-21T02:12:47.040Z,983.88
2018-06-21T02:13:47.238Z,983.90
2018-06-21T02:14:47.408Z,983.88
2018-06-21T02:15:47.588Z,983.87
2018-06-21T02:16:47.774Z,983.87
2018-06-21T02:17:47.986Z,983.85
2018-06-21T02:18:48.137Z,983.79
2018-06-21T02:19:48.328Z,983.80
2018-06-21T02:20:48.500Z,983.77
2018-06-21T02:21:48.688Z,983.74
2018-06-21T02:22:48.887Z,983.74
2018-06-21T02:23:49.036Z,983.71
2018-06-21T02:24:49.222Z,983.69
2018-06-21T02:25:49.409Z,983.66
2018-06-21T02:26:49.582Z,983.64
2018-06-21T02:27:49.769Z,983.64
2018-06-21T02:28:49.948Z,983.62
2018-06-21T02:29:50.131Z,983.60
2018-06-21T02:30:50.344Z,983.60
2018-06-21T02:31:50.502Z,983.60
2018-06-21T02:32:50.700Z,983.58
2018-06-21T02:33:50.856Z,983.59
2018-06-21T02:34:51.056Z,983.58
2018-06-21T02:35:51.228Z,983.55
2018-06-21T02:36:51.428Z,983.51
2018-06-21T02:37:51.597Z,983.54
2018-06-21T02:38:51.791Z,983.53
2018-06-21T02:39:51.981Z,983.53
2018-06-21T02:40:52.147Z,983.53
2018-06-21T02:41:52.351Z,983.50
2018-06-21T02:42:52.513Z,983.52
2018-06-21T02:43:52.698Z,983.50
2018-06-21T02:44:52.880Z,983.47
2018-06-21T02:45:53.061Z,983.48
2018-06-21T02:46:53.254Z,983.47
2018-06-21T02:47:53.438Z,983.48
2018-06-21T02:48:53.620Z,983.44
2018-06-21T02:49:53.811Z,983.44
2018-06-21T02:50:53.994Z,983.42
2018-06-21T02:51:54.179Z,983.45
2018-06-21T02:52:54.363Z,983.44
2018-06-21T02:53:54.544Z,983.42
2018-06-21T02:54:54.734Z,983.42
2018-06-21T02:55:54.953Z,983.40
2018-06-21T02:56:55.165Z,983.45
2018-06-21T02:57:55.301Z,983.44
2018-06-21T02:58:55.495Z,983.41
2018-06-21T02:59:55.682Z,983.40
2018-06-21T03:00:55.865Z,983.39
2018-06-21T03:01:56.052Z,983.38
2018-06-21T03:02:56.240Z,983.36
2018-06-21T03:03:56.455Z,983.33
2018-06-21T03:04:56.612Z,983.32
2018-06-21T03:05:56.795Z,983.32
2018-06-21T03:06:56.986Z,983.32
2018-06-21T03:07:57.170Z,983.31
2018-06-21T03:08:57.353Z,983.28
2018-06-21T03:09:57.540Z,983.26
2018-06-21T03:10:57.728Z,983.28
2018-06-21T03:11:57.912Z,983.25
2018-06-21T03:12:58.101Z,983.25
2018-06-21T03:13:58.298Z,983.25
2018-06-21T03:14:58.457Z,983.21
2018-06-21T03:15:58.651Z,983.20
2018-06-21T03:16:58.834Z,983.20
2018-06-21T03:17:59.020Z,983.19
2018-06-21T03:18:59.204Z,983.19
2018-06-21T03:19:59.403Z,983.15
2018-06-21T03:20:59.585Z,983.15
2018-06-21T03:21:59.783Z,983.17
2018-06-21T03:22:59.959Z,983.12
2018-06-21T03:24:00.145Z,983.11
2018-06-21T03:25:00.349Z,983.12
2018-06-21T03:26:00.508Z,983.11
2018-06-21T03:27:00.693Z,983.07
2018-06-21T03:28:00.891Z,983.09
2018-06-21T03:29:01.058Z,983.06
2018-06-21T03:30:01.254Z,983.07
2018-06-21T03:31:01.437Z,983.02
2018-06-21T03:32:01.624Z,982.97
2018-06-21T03:33:01.812Z,982.97
2018-06-21T03:34:02.004Z,982.93
2018-06-21T03:35:02.187Z,982.85
2018-06-21T03:36:02.377Z,982.82
2018-06-21T03:37:02.553Z,982.79
2018-06-21T03:38:02.737Z,982.75
2018-06-21T03:39:02.913Z,982.78
2018-06-21T03:40:03.098Z,982.76
2018-06-21T03:41:03.286Z,982.77
2018-06-21T03:42:03.496Z,982.74
2018-06-21T03:43:03.643Z,982.73
2018-06-21T03:44:03.828Z,982.78
2018-06-21T03:45:04.025Z,982.76
2018-06-21T03:46:04.196Z,982.77
2018-06-21T03:47:04.378Z,982.74
2018-06-21T03:48:04.570Z,982.75
2018-06-21T03:49:04.756Z,982.73
2018-06-21T03:50:04.939Z,982.72
2018-06-21T03:51:05.134Z,982.69
2018-06-21T03:52:05.321Z,982.65
2018-06-21T03:53:05.506Z,982.67
2018-06-21T03:54:05.669Z,982.67
2018-06-21T03:55:05.849Z,982.66
2018-06-21T03:56:06.042Z,982.63
2018-06-21T03:57:06.249Z,982.59
2018-06-21T03:58:06.405Z,982.60
2018-06-21T03:59:06.592Z,982.61
2018-06-21T04:00:06.772Z,982.60
2018-06-21T04:01:06.958Z,982.60
2018-06-21T04:02:07.146Z,982.53
2018-06-21T04:03:07.385Z,982.53
2018-06-21T04:04:07.513Z,982.55
2018-06-21T04:05:07.695Z,982.58
2018-06-21T04:06:07.884Z,982.60
2018-06-21T04:07:08.095Z,982.62
2018-06-21T04:08:08.256Z,982.59
2018-06-21T04:09:08.445Z,982.58
2018-06-21T04:10:08.623Z,982.55
2018-06-21T04:11:08.810Z,982.61
2018-06-21T04:12:08.995Z,982.61
2018-06-21T04:13:09.195Z,982.54
2018-06-21T04:14:09.368Z,982.58
2018-06-21T04:15:09.570Z,982.58
2018-06-21T04:16:09.764Z,982.59
2018-06-21T04:17:09.948Z,982.58
2018-06-21T04:18:10.139Z,982.56
2018-06-21T04:19:10.326Z,982.50
2018-06-21T04:20:10.518Z,982.49
2018-06-21T04:21:10.734Z,982.45
2018-06-21T04:22:10.918Z,982.43
2018-06-21T04:23:11.113Z,982.42
2018-06-21T04:24:11.288Z,982.46
2018-06-21T04:25:11.472Z,982.43
2018-06-21T04:26:11.652Z,982.46
2018-06-21T04:27:11.843Z,982.46
2018-06-21T04:28:12.023Z,982.43
2018-06-21T04:29:12.210Z,982.46
2018-06-21T04:30:12.416Z,982.45
2018-06-21T04:31:12.575Z,982.46
2018-06-21T04:32:12.820Z,982.49
2018-06-21T04:33:12.954Z,982.46
2018-06-21T04:34:13.141Z,982.48
2018-06-21T04:35:13.337Z,982.49
2018-06-21T04:36:13.512Z,982.51
2018-06-21T04:37:13.695Z,982.54
2018-06-21T04:38:13.885Z,982.54
2018-06-21T04:39:14.073Z,982.52
2018-06-21T04:40:14.264Z,982.41
2018-06-21T04:41:14.449Z,982.30
2018-06-21T04:42:14.640Z,982.05
2018-06-21T04:43:14.843Z,981.86
2018-06-21T04:44:15.046Z,981.90
2018-06-21T04:45:15.195Z,981.99
2018-06-21T04:46:15.381Z,981.89
2018-06-21T04:47:15.578Z,981.84
2018-06-21T04:48:15.754Z,981.88
2018-06-21T04:49:15.939Z,981.77
2018-06-21T04:50:16.126Z,981.75
2018-06-21T04:51:16.317Z,981.77
2018-06-21T04:52:16.504Z,981.75
2018-06-21T04:53:16.700Z,981.76
2018-06-21T04:54:16.897Z,981.73
2018-06-21T04:55:17.071Z,981.62
2018-06-21T04:56:17.275Z,981.60
2018-06-21T04:57:17.453Z,981.64
2018-06-21T04:58:17.644Z,981.58
2018-06-21T04:59:17.836Z,981.52
2018-06-21T05:00:18.030Z,981.61
2018-06-21T05:01:18.228Z,981.57
2018-06-21T05:02:18.431Z,981.56
2018-06-21T05:03:18.621Z,981.56
2018-06-21T05:04:18.769Z,981.56
2018-06-21T05:05:18.956Z,981.57
2018-06-21T05:06:19.185Z,981.61
2018-06-21T05:07:19.350Z,981.54
2018-06-21T05:08:19.568Z,981.63
2018-06-21T05:09:19.736Z,981.78
2018-06-21T05:10:19.958Z,981.60
2018-06-21T05:11:20.169Z,981.56
2018-06-21T05:12:20.297Z,981.65
2018-06-21T05:13:20.494Z,981.62
2018-06-21T05:14:20.661Z,981.86
2018-06-21T05:15:20.858Z,982.02
2018-06-21T05:16:21.081Z,982.07
2018-06-21T05:17:21.222Z,982.01
2018-06-21T05:18:21.447Z,982.04
2018-06-21T05:19:21.612Z,982.03
2018-06-21T05:20:21.799Z,982.21
2018-06-21T05:21:22.013Z,982.28
2018-06-21T05:22:22.204Z,982.39
2018-06-21T05:23:22.391Z,982.44
2018-06-21T05:24:22.595Z,982.54
2018-06-21T05:25:22.783Z,982.71
2018-06-21T06:04:14.053Z,982.86
2018-06-21T06:27:09.614Z,982.65
2018-06-21T06:31:59.517Z,982.66
2018-06-21T06:50:30.596Z,982.45
2018-06-21T06:51:18.004Z,982.51
2018-06-21T06:52:18.152Z,982.45
2018-06-21T06:53:18.367Z,982.39
2018-06-21T07:06:21.295Z,982.36
2018-06-21T07:07:21.581Z,982.29
2018-06-21T07:08:21.809Z,982.31
2018-06-21T07:13:06.537Z,982.27
2018-06-21T07:14:08.438Z,982.27
2018-06-21T07:26:12.773Z,982.18
2018-06-21T07:30:35.370Z,982.38
2018-06-21T07:31:30.121Z,982.31
2018-06-21T07:42:23.577Z,982.00
2018-06-21T07:45:01.035Z,982.06
2018-06-21T07:46:14.095Z,981.99
2018-06-21T07:47:02.036Z,982.03
2018-06-21T07:48:10.608Z,982.07
2018-06-21T07:56:17.805Z,981.93
2018-06-21T08:06:40.032Z,982.10
2018-06-21T08:07:40.338Z,981.97
2018-06-21T08:08:40.518Z,982.03
2018-06-21T08:11:41.105Z,982.03
2018-06-21T08:26:59.808Z,981.81
2018-06-21T08:27:45.765Z,981.77
2018-06-21T08:34:05.509Z,981.71
2018-06-21T08:40:12.682Z,981.85
2018-06-21T08:44:50.057Z,981.88
2018-06-21T08:45:25.772Z,981.92
2018-06-21T08:46:25.991Z,981.87
2018-06-21T08:47:26.090Z,981.86
2018-06-21T08:48:48.472Z,981.85
2018-06-21T08:51:34.311Z,981.90
2018-06-21T08:52:34.628Z,981.93
2018-06-21T08:53:45.414Z,981.93
2018-06-21T08:54:34.876Z,982.01
2018-06-21T08:55:35.212Z,981.95
2018-06-21T09:00:17.328Z,982.02
2018-06-21T09:00:55.486Z,981.99
2018-06-21T09:14:10.293Z,982.11
2018-06-21T09:15:10.457Z,982.01
2018-06-21T09:18:12.002Z,982.13
2018-06-21T09:18:56.790Z,982.13
2018-06-21T09:20:08.359Z,982.12
2018-06-21T09:21:07.509Z,982.10
2018-06-21T09:25:35.279Z,982.11
2018-06-21T09:26:17.870Z,982.05
2018-06-21T09:27:18.211Z,982.04
2018-06-21T09:28:19.264Z,982.08
2018-06-21T09:35:00.166Z,982.11
2018-06-21T09:35:34.931Z,982.07
2018-06-21T09:36:53.102Z,982.05
2018-06-21T09:37:37.112Z,982.12
2018-06-21T09:38:35.451Z,982.13
2018-06-21T09:39:35.639Z,982.16
2018-06-21T09:40:35.800Z,982.18
2018-06-21T09:41:35.847Z,982.22
2018-06-21T09:44:22.778Z,982.26
2018-06-21T09:45:20.158Z,982.26
2018-06-21T09:46:20.163Z,982.26
2018-06-21T09:47:19.830Z,982.32
2018-06-21T09:48:22.852Z,982.29
2018-06-21T09:49:20.028Z,982.33
2018-06-21T09:50:20.225Z,982.41
2018-06-21T09:51:20.480Z,982.45
2018-06-21T09:52:20.903Z,982.42
2018-06-21T09:54:27.741Z,982.45
2018-06-21T09:55:21.227Z,982.53
2018-06-21T09:56:21.302Z,982.55
2018-06-21T09:57:21.600Z,982.55
2018-06-21T09:58:23.184Z,982.55
2018-06-21T09:59:38.201Z,982.56
2018-06-21T10:02:04.638Z,982.56
2018-06-21T10:03:05.556Z,982.50
2018-06-21T10:04:04.764Z,982.62
2018-06-21T10:05:05.064Z,982.61
2018-06-21T10:06:15.611Z,982.59
2018-06-21T10:07:05.317Z,982.67
2018-06-21T10:08:05.528Z,982.63
2018-06-21T10:09:08.648Z,982.67
2018-06-21T10:10:06.027Z,982.65
2018-06-21T10:11:06.134Z,982.62
2018-06-21T10:12:06.327Z,982.67
2018-06-21T10:13:06.531Z,982.68
2018-06-21T10:15:40.867Z,982.77
2018-06-21T10:16:40.137Z,982.72
2018-06-21T10:17:40.233Z,982.83
2018-06-21T10:18:48.103Z,982.80
2018-06-21T10:19:40.652Z,982.82
2018-06-21T10:20:40.848Z,982.83
2018-06-21T10:21:41.115Z,982.90
2018-06-21T10:22:45.842Z,983.02
2018-06-21T10:23:41.422Z,982.92
2018-06-21T10:24:41.630Z,982.92
2018-06-21T10:25:41.807Z,982.96
2018-06-21T10:26:41.990Z,983.02
2018-06-21T10:27:42.162Z,983.15
2018-06-21T10:28:42.371Z,983.10
2018-06-21T10:29:42.543Z,983.13
2018-06-21T10:30:42.735Z,983.21
2018-06-21T10:31:42.905Z,983.14
2018-06-21T10:32:43.114Z,983.18
2018-06-21T10:33:43.308Z,983.22
2018-06-21T10:34:43.480Z,983.23
2018-06-21T10:35:43.785Z,983.24
2018-06-21T10:36:57.917Z,983.18
2018-06-21T10:40:01.239Z,983.17
2018-06-21T10:40:51.406Z,983.24
2018-06-21T10:41:51.614Z,983.24
2018-06-21T10:44:27.470Z,983.28
2018-06-21T10:47:22.982Z,983.32
2018-06-21T10:48:12.484Z,983.35
2018-06-21T11:09:34.140Z,983.53
2018-06-21T11:10:23.871Z,983.52
2018-06-21T11:18:35.328Z,983.43
2018-06-21T11:27:02.175Z,983.44
2018-06-21T11:31:14.403Z,983.38
2018-06-21T11:32:04.132Z,983.38
2018-06-21T11:33:04.293Z,983.31
2018-06-21T11:37:49.512Z,983.41
2018-06-21T11:38:37.464Z,983.40
2018-06-21T11:39:53.522Z,983.43
2018-06-21T11:40:37.584Z,983.44
2018-06-21T11:41:37.524Z,983.55
2018-06-21T11:42:37.991Z,983.49
2018-06-21T11:44:01.536Z,983.50
2018-06-21T11:44:40.039Z,983.42
2018-06-21T11:45:37.843Z,983.41
2018-06-21T11:46:37.933Z,983.37
2018-06-21T11:47:38.123Z,983.36
2018-06-21T11:48:38.329Z,983.28
2018-06-21T11:49:38.603Z,983.31
2018-06-21T11:50:38.661Z,983.35
2018-06-21T11:51:38.858Z,983.26
2018-06-21T11:52:39.074Z,983.34
2018-06-21T11:53:39.265Z,983.39
2018-06-21T11:54:39.448Z,983.25
2018-06-21T11:55:39.649Z,983.35
2018-06-21T11:56:39.916Z,983.38
2018-06-21T11:57:40.017Z,983.42
2018-06-21T11:58:40.199Z,983.34
2018-06-21T12:00:11.612Z,983.25
2018-06-21T12:00:40.724Z,983.34
2018-06-21T12:01:40.929Z,983.39
2018-06-21T12:02:41.160Z,983.33
2018-06-21T12:05:57.936Z,983.21
2018-06-21T12:06:26.190Z,983.25
2018-06-21T12:07:26.984Z,983.42
2018-06-21T12:08:27.381Z,983.36
2018-06-21T12:09:26.714Z,983.38
2018-06-21T12:10:26.889Z,983.43
2018-06-21T12:11:27.126Z,983.52
2018-06-21T12:12:27.350Z,983.47
2018-06-21T12:13:27.573Z,983.44
2018-06-21T12:14:27.784Z,983.45
2018-06-21T12:15:27.954Z,983.46
2018-06-21T12:16:28.245Z,983.44
2018-06-21T12:17:28.310Z,983.52
2018-06-21T12:18:28.504Z,983.49
2018-06-21T12:19:28.720Z,983.48
2018-06-21T12:20:28.906Z,983.46
2018-06-21T12:21:29.091Z,983.48
2018-06-21T12:22:29.288Z,983.39
2018-06-21T12:23:29.499Z,983.41
2018-06-21T12:24:29.724Z,983.53
2018-06-21T12:25:29.902Z,983.45
2018-06-21T12:26:30.920Z,983.42
2018-06-21T12:27:30.330Z,983.53
2018-06-21T12:28:30.539Z,983.48
2018-06-21T12:29:30.807Z,983.51
2018-06-21T12:30:31.003Z,983.55
2018-06-21T12:31:31.933Z,983.61
2018-06-21T12:32:31.860Z,983.65
2018-06-21T12:33:31.506Z,983.52
2018-06-21T12:34:31.718Z,983.66
2018-06-21T12:35:32.963Z,983.72
2018-06-21T12:36:32.178Z,983.62
2018-06-21T12:37:32.366Z,983.62
2018-06-21T12:38:32.646Z,983.70
2018-06-21T12:39:32.840Z,983.64
2018-06-21T12:40:32.920Z,983.66
2018-06-21T12:41:33.098Z,983.68
2018-06-21T12:42:33.275Z,983.69
2018-06-21T12:45:23.538Z,983.74
2018-06-21T12:46:23.745Z,983.84
2018-06-21T12:47:23.916Z,983.81
2018-06-21T12:48:24.128Z,983.87
2018-06-21T12:49:24.217Z,983.84
2018-06-21T12:52:00.509Z,983.90
2018-06-21T12:52:59.927Z,983.89
2018-06-21T12:54:01.028Z,983.90
2018-06-21T12:55:00.285Z,983.89
2018-06-21T12:56:15.075Z,983.95
2018-06-21T12:57:00.522Z,983.98
2018-06-21T12:58:00.728Z,983.97
2018-06-21T12:59:24.089Z,983.91
2018-06-21T13:00:01.112Z,983.93
2018-06-21T13:01:02.029Z,984.01
2018-06-21T13:02:05.047Z,983.97
2018-06-21T13:03:03.538Z,983.99
2018-06-21T13:04:02.525Z,983.96
2018-06-21T13:05:02.052Z,984.01
2018-06-21T13:06:05.084Z,984.04
2018-06-21T13:07:02.464Z,984.06
2018-06-21T13:08:02.704Z,984.00
2018-06-21T13:09:02.897Z,984.13
2018-06-21T13:10:03.090Z,984.13
2018-06-21T13:11:03.321Z,984.16
2018-06-21T13:12:03.510Z,984.23
2018-06-21T13:13:03.691Z,984.17
2018-06-21T13:14:03.899Z,984.24
2018-06-21T13:15:04.078Z,984.19
2018-06-21T13:16:04.349Z,984.19
2018-06-21T13:17:04.401Z,984.21
2018-06-21T13:18:04.575Z,984.21
2018-06-21T13:19:04.744Z,984.25
2018-06-21T13:20:04.944Z,984.13
2018-06-21T13:21:05.140Z,984.22
2018-06-21T13:22:05.634Z,984.23
2018-06-21T13:23:05.533Z,984.24
2018-06-21T13:24:05.608Z,984.32
2018-06-21T13:25:30.551Z,984.24
2018-06-21T13:28:03.991Z,984.31
2018-06-21T13:29:02.974Z,984.27
2018-06-21T13:30:01.611Z,984.24
2018-06-21T13:31:02.476Z,984.34
2018-06-21T13:32:09.478Z,984.26
2018-06-21T13:33:02.977Z,984.30
2018-06-21T13:34:02.341Z,984.28
2018-06-21T13:35:02.587Z,984.25
2018-06-21T13:36:02.809Z,984.32
2018-06-21T13:37:03.124Z,984.44
2018-06-21T13:38:03.205Z,984.43
2018-06-21T13:39:03.402Z,984.42
2018-06-21T13:40:03.584Z,984.42
2018-06-21T13:41:03.869Z,984.45
2018-06-21T13:42:04.007Z,984.47
2018-06-21T13:43:04.218Z,984.50
2018-06-21T13:44:04.420Z,984.56
2018-06-21T13:45:38.537Z,984.44
2018-06-21T13:46:05.496Z,984.52
2018-06-21T13:47:05.101Z,984.50
2018-06-21T13:48:31.020Z,984.59
2018-06-21T13:49:05.306Z,984.64
2018-06-21T13:50:12.095Z,984.53
2018-06-21T13:51:05.669Z,984.59
2018-06-21T13:52:06.011Z,984.63
2018-06-21T13:53:06.136Z,984.54
2018-06-21T13:54:06.186Z,984.64
2018-06-21T13:55:06.388Z,984.57
2018-06-21T13:56:06.600Z,984.56
2018-06-21T13:57:06.789Z,984.53
2018-06-21T13:58:06.975Z,984.61
2018-06-21T13:59:07.171Z,984.59
2018-06-21T14:00:18.521Z,984.61
2018-06-21T14:01:08.569Z,984.65
2018-06-21T14:02:08.525Z,984.50
2018-06-21T14:03:08.051Z,984.57
2018-06-21T14:04:08.124Z,984.53
2018-06-21T14:05:32.079Z,984.56
2018-06-21T14:06:08.497Z,984.59
2018-06-21T14:07:08.707Z,984.53
2018-06-21T14:08:09.058Z,984.53
2018-06-21T14:09:09.145Z,984.59
2018-06-21T14:10:09.352Z,984.68
2018-06-21T14:11:09.560Z,984.66
2018-06-21T14:16:01.782Z,984.77
2018-06-21T14:17:05.609Z,984.66
2018-06-21T14:18:02.646Z,984.57
2018-06-21T14:19:02.179Z,984.73
2018-06-21T14:20:18.089Z,984.82
2018-06-21T14:21:03.177Z,984.83
2018-06-21T14:22:02.778Z,984.81
2018-06-21T14:23:03.010Z,984.84
2018-06-21T14:24:03.198Z,984.78
2018-06-21T14:26:37.104Z,984.87
2018-06-21T14:27:38.192Z,984.88
2018-06-21T14:28:37.615Z,984.78
2018-06-21T14:29:38.485Z,984.83
2018-06-21T14:30:37.811Z,984.88
2018-06-21T14:33:10.272Z,984.86
2018-06-21T14:34:10.480Z,984.93
2018-06-21T14:35:12.089Z,984.93
2018-06-21T14:38:33.449Z,984.96
2018-06-21T14:38:54.454Z,984.99
2018-06-21T14:39:53.856Z,985.02
2018-06-21T14:40:54.484Z,985.00
2018-06-21T14:41:54.947Z,985.04
2018-06-21T14:42:54.948Z,985.06
2018-06-21T14:43:54.578Z,984.99
2018-06-21T14:45:07.752Z,984.96
2018-06-21T14:45:56.549Z,984.95
2018-06-21T14:46:55.226Z,984.99
2018-06-21T14:47:55.472Z,985.00
2018-06-21T14:49:03.968Z,985.03
2018-06-21T14:49:55.806Z,985.07
2018-06-21T14:51:18.967Z,984.99
2018-06-21T14:51:56.028Z,984.98
2018-06-21T14:52:56.215Z,985.11
2018-06-21T14:53:57.625Z,985.02
2018-06-21T14:54:56.595Z,985.11
2018-06-21T14:55:56.783Z,985.09
2018-06-21T14:56:58.270Z,985.15
2018-06-21T14:57:57.245Z,985.10
2018-06-21T14:58:57.604Z,985.15
2018-06-21T14:59:57.682Z,985.19
2018-06-21T15:00:58.021Z,985.16
2018-06-21T15:01:58.066Z,985.24
2018-06-21T15:02:58.258Z,985.26
2018-06-21T15:03:58.473Z,985.30
2018-06-21T15:04:58.671Z,985.31
2018-06-21T15:05:58.872Z,985.29
2018-06-21T15:06:59.239Z,985.36
2018-06-21T15:07:59.324Z,985.32
2018-06-21T15:08:59.459Z,985.38
2018-06-21T15:09:59.620Z,985.31
2018-06-21T15:10:59.834Z,985.42
2018-06-21T15:12:00.971Z,985.41
2018-06-21T15:13:00.243Z,985.41
2018-06-21T15:14:00.563Z,985.46
2018-06-21T15:15:00.626Z,985.44
2018-06-21T15:16:00.987Z,985.40
2018-06-21T15:17:01.053Z,985.40
2018-06-21T15:18:01.590Z,985.45
2018-06-21T15:19:01.385Z,985.50
2018-06-21T15:22:13.426Z,985.48
2018-06-21T15:22:52.582Z,985.48
2018-06-21T15:23:53.571Z,985.51
2018-06-21T15:24:53.977Z,985.50
2018-06-21T15:25:53.325Z,985.56
2018-06-21T15:26:54.500Z,985.52
2018-06-21T15:28:16.044Z,985.51
2018-06-21T15:28:54.018Z,985.55
2018-06-21T15:29:54.065Z,985.54
2018-06-21T15:30:54.139Z,985.61
2018-06-21T15:31:54.370Z,985.62
2018-06-21T15:32:54.543Z,985.63
2018-06-21T15:34:32.110Z,985.58
2018-06-21T15:34:55.044Z,985.61
2018-06-21T15:35:56.063Z,985.63
2018-06-21T15:36:57.582Z,985.62
2018-06-21T15:37:55.851Z,985.66
2018-06-21T15:38:56.523Z,985.69
2018-06-21T15:42:11.618Z,985.72
2018-06-21T15:42:40.127Z,985.68
2018-06-21T15:43:40.398Z,985.74
2018-06-21T15:44:40.581Z,985.61
2018-06-21T15:45:40.668Z,985.75
2018-06-21T15:46:54.044Z,985.75
2018-06-21T15:47:41.041Z,985.77
2018-06-21T15:48:41.133Z,985.79
2018-06-21T15:49:41.319Z,985.81
2018-06-21T16:02:35.621Z,986.06
2018-06-21T16:03:24.294Z,986.05
2018-06-21T16:04:24.467Z,986.11
2018-06-21T16:05:34.595Z,986.02
2018-06-21T16:06:25.007Z,986.06
2018-06-21T16:09:10.741Z,986.07
2018-06-21T16:10:09.751Z,986.11
2018-06-21T16:18:55.556Z,986.16
2018-06-21T16:19:48.477Z,986.23
2018-06-21T16:20:47.842Z,986.23
2018-06-21T16:27:10.689Z,986.33
2018-06-21T16:27:51.106Z,986.30
2018-06-21T16:28:51.158Z,986.34
2018-06-21T16:29:50.370Z,986.31
2018-06-21T16:30:50.479Z,986.34
2018-06-21T16:31:51.073Z,986.35
2018-06-21T16:32:51.574Z,986.39
2018-06-21T16:33:51.017Z,986.36
2018-06-21T16:34:51.209Z,986.33
2018-06-21T16:35:51.417Z,986.34
2018-06-21T16:36:51.601Z,986.33
2018-06-21T16:37:51.773Z,986.42
2018-06-21T16:38:51.989Z,986.33
2018-06-21T16:39:52.217Z,986.35
2018-06-21T16:40:52.435Z,986.44
2018-06-21T16:41:52.616Z,986.44
2018-06-21T16:42:52.822Z,986.47
2018-06-21T16:43:53.022Z,986.43
2018-06-21T16:44:53.324Z,986.43
2018-06-21T16:45:53.407Z,986.47
2018-06-21T16:46:54.097Z,986.53
2018-06-21T16:47:53.836Z,986.52
2018-06-21T16:48:54.044Z,986.50
2018-06-21T16:49:54.230Z,986.46
2018-06-21T16:50:54.437Z,986.51
2018-06-21T16:51:54.617Z,986.53
2018-06-21T16:52:55.013Z,986.52
2018-06-21T16:53:55.656Z,986.54
2018-06-21T16:54:55.157Z,986.54
2018-06-21T16:55:55.561Z,986.52
2018-06-21T16:56:55.512Z,986.47
2018-06-21T16:57:55.737Z,986.55
2018-06-21T16:58:55.912Z,986.59
2018-06-21T16:59:57.081Z,986.63
2018-06-21T17:00:56.240Z,986.61
2018-06-21T17:01:56.526Z,986.65
2018-06-21T17:02:57.581Z,986.68
2018-06-21T17:03:56.738Z,986.72
2018-06-21T17:04:57.642Z,986.74
2018-06-21T17:05:57.162Z,986.75
2018-06-21T17:06:57.369Z,986.66
2018-06-21T17:07:57.555Z,986.69
2018-06-21T17:08:57.760Z,986.73
2018-06-21T17:09:58.198Z,986.69
2018-06-21T17:10:58.185Z,986.74
2018-06-21T17:17:37.427Z,986.62
2018-06-21T17:18:37.378Z,986.77
2018-06-21T17:19:37.062Z,986.88
2018-06-21T17:24:24.630Z,986.95
2018-06-21T17:25:09.793Z,986.99
2018-06-21T17:26:18.094Z,986.97
2018-06-21T17:27:17.164Z,986.97
2018-06-21T17:28:10.548Z,986.92
2018-06-21T17:29:10.840Z,987.00
2018-06-21T17:30:10.834Z,987.02
2018-06-21T17:31:23.574Z,987.10
2018-06-21T17:32:11.294Z,987.06
2018-06-21T17:33:11.558Z,987.04
2018-06-21T17:34:11.611Z,987.11
2018-06-21T17:35:11.824Z,987.03